Time;durP1;ratioP1;P1;durP2;ratioP2;P2;SDS_P1;SDS_P2;PMS_P1;PMS_P2;Temp;Humidity;BMP_temperature;BMP_pressure;BME280_temperature;BME280_humidity;BME280_pressure;Samples;Min_cycle;Max_cycle;Signal;HPM_P1;HPM_P2
2021/10/03 00:00:57;;;;;;;3.67;2.97;;;18.90;99.90;;;;;;5052629;28;20509;-53
2021/10/03 00:03:24;;;;;;;3.43;3.13;;;19.00;99.90;;;;;;5053110;28;20511;-52
2021/10/03 00:05:53;;;;;;;3.83;3.30;;;19.00;99.90;;;;;;5050257;28;20508;-52
2021/10/03 00:08:21;;;;;;;4.20;2.73;;;19.00;99.90;;;;;;5052443;28;20560;-53
2021/10/03 00:10:50;;;;;;;3.57;3.20;;;19.00;99.90;;;;;;5052145;28;20518;-53
2021/10/03 00:13:18;;;;;;;3.13;2.60;;;19.00;99.90;;;;;;5052900;28;20479;-52
2021/10/03 00:15:47;;;;;;;3.70;2.60;;;18.90;99.90;;;;;;5052216;28;20452;-52
2021/10/03 00:18:15;;;;;;;4.50;2.57;;;18.80;99.90;;;;;;5050055;28;20846;-52
2021/10/03 00:20:42;;;;;;;3.20;2.90;;;18.70;99.90;;;;;;5047926;28;20448;-52
2021/10/03 00:23:10;;;;;;;8.73;3.07;;;18.80;99.90;;;;;;5049087;28;20468;-51
2021/10/03 00:25:37;;;;;;;4.13;3.47;;;18.80;99.90;;;;;;5052217;28;20509;-53
2021/10/03 00:28:06;;;;;;;3.50;3.07;;;18.70;99.90;;;;;;5051334;28;20910;-52
2021/10/03 00:30:35;;;;;;;4.27;3.40;;;18.70;99.90;;;;;;5046896;28;20458;-53
2021/10/03 00:33:04;;;;;;;4.23;3.50;;;18.80;99.90;;;;;;5051858;28;20459;-52
2021/10/03 00:35:31;;;;;;;3.20;2.90;;;18.70;99.90;;;;;;5052240;28;20945;-52
2021/10/03 00:37:59;;;;;;;3.50;3.13;;;18.80;99.90;;;;;;5051939;28;20455;-52
2021/10/03 00:40:31;;;;;;;4.97;3.10;;;18.60;99.90;;;;;;5045342;28;20459;-53
2021/10/03 00:43:00;;;;;;;3.80;2.90;;;18.50;99.90;;;;;;5052221;28;20497;-53
2021/10/03 00:45:31;;;;;;;3.50;3.10;;;18.50;99.90;;;;;;5051158;28;20477;-54
2021/10/03 00:47:59;;;;;;;3.20;2.90;;;18.40;99.90;;;;;;5052243;28;20490;-52
2021/10/03 00:50:32;;;;;;;3.77;3.30;;;18.40;99.90;;;;;;5051435;28;20886;-53
2021/10/03 00:52:59;;;;;;;3.97;2.70;;;18.50;99.90;;;;;;5051024;28;20451;-53
2021/10/03 00:55:27;;;;;;;4.20;2.60;;;18.40;99.90;;;;;;5051920;28;20459;-53
2021/10/03 00:57:55;;;;;;;2.77;2.53;;;18.50;99.90;;;;;;5050372;28;20435;-52
2021/10/03 01:00:24;;;;;;;3.70;2.87;;;18.40;99.90;;;;;;5048367;28;20517;-53
2021/10/03 01:02:52;;;;;;;3.83;2.87;;;18.50;99.90;;;;;;5050754;28;20498;-53
2021/10/03 01:05:19;;;;;;;2.83;2.40;;;18.60;99.90;;;;;;5050881;28;20533;-54
2021/10/03 01:07:48;;;;;;;2.67;2.40;;;18.60;99.90;;;;;;5051537;28;20533;-53
2021/10/03 01:10:20;;;;;;;3.90;2.90;;;18.50;99.90;;;;;;5049830;28;20529;-54
2021/10/03 01:12:47;;;;;;;4.40;2.83;;;18.90;99.90;;;;;;5046677;28;20448;-52
2021/10/03 01:15:14;;;;;;;3.90;2.93;;;18.90;99.90;;;;;;5051692;28;20513;-54
2021/10/03 01:17:41;;;;;;;3.00;2.70;;;18.90;99.90;;;;;;5051671;28;20444;-55
2021/10/03 01:20:09;;;;;;;2.80;2.47;;;19.00;99.90;;;;;;5042292;28;21031;-54
2021/10/03 01:22:39;;;;;;;3.53;3.23;;;19.10;99.90;;;;;;5047135;28;20518;-53
2021/10/03 01:25:07;;;;;;;2.67;2.47;;;19.10;99.90;;;;;;5051290;28;20512;-54
2021/10/03 01:27:35;;;;;;;4.03;2.07;;;19.00;99.90;;;;;;5051469;28;21001;-53
2021/10/03 01:30:02;;;;;;;3.03;2.27;;;19.00;99.90;;;;;;5050786;28;20566;-54
2021/10/03 01:32:29;;;;;;;4.50;2.50;;;19.00;99.90;;;;;;5050997;28;20811;-54
2021/10/03 01:34:56;;;;;;;2.97;2.30;;;18.90;99.90;;;;;;5051405;28;20621;-54
2021/10/03 01:37:25;;;;;;;3.37;2.60;;;18.80;99.90;;;;;;5051251;28;20440;-53
2021/10/03 01:39:54;;;;;;;6.00;2.13;;;18.80;99.90;;;;;;5050658;28;20472;-54
2021/10/03 01:42:21;;;;;;;1.90;1.80;;;18.90;99.90;;;;;;5050940;28;20447;-53
2021/10/03 01:44:48;;;;;;;2.37;2.17;;;19.00;99.90;;;;;;5050997;28;20505;-55
2021/10/03 01:47:15;;;;;;;2.27;2.07;;;19.00;99.90;;;;;;5051043;28;20447;-53
2021/10/03 01:49:42;;;;;;;2.70;2.23;;;19.00;99.90;;;;;;5046711;28;20472;-55
2021/10/03 01:52:09;;;;;;;5.20;2.40;;;19.10;99.90;;;;;;5043727;28;20953;-54
2021/10/03 01:54:36;;;;;;;4.70;2.77;;;19.00;99.90;;;;;;5051081;28;20456;-55
2021/10/03 01:57:05;;;;;;;3.03;2.40;;;19.00;99.90;;;;;;5051189;28;20502;-53
2021/10/03 01:59:33;;;;;;;2.50;2.30;;;19.00;99.90;;;;;;5046867;28;20541;-55
2021/10/03 02:02:00;;;;;;;3.63;2.37;;;19.00;99.90;;;;;;5050891;28;20541;-54
2021/10/03 02:04:28;;;;;;;2.30;2.10;;;19.00;99.90;;;;;;5051195;28;20547;-53
2021/10/03 02:06:58;;;;;;;3.10;2.60;;;19.00;99.90;;;;;;5051175;28;20451;-54
2021/10/03 02:09:27;;;;;;;2.47;2.27;;;18.90;99.90;;;;;;5050346;28;20981;-54
2021/10/03 02:11:56;;;;;;;2.33;2.13;;;19.10;99.90;;;;;;5050729;28;20448;-53
2021/10/03 02:14:30;;;;;;;2.93;2.67;;;19.40;99.90;;;;;;5051109;28;20448;-54
2021/10/03 02:16:57;;;;;;;3.97;2.63;;;19.40;99.90;;;;;;5051245;28;20889;-54
2021/10/03 02:19:25;;;;;;;3.30;2.33;;;19.40;99.90;;;;;;5050261;28;20468;-52
2021/10/03 02:21:53;;;;;;;3.33;2.13;;;19.40;99.90;;;;;;5052703;28;20499;-53
2021/10/03 02:24:20;;;;;;;4.40;2.23;;;19.40;99.90;;;;;;5044580;28;20459;-53
2021/10/03 02:26:48;;;;;;;3.77;2.70;;;19.40;99.90;;;;;;5053622;28;20501;-53
2021/10/03 02:29:15;;;;;;;4.73;2.80;;;19.30;99.90;;;;;;5054454;28;21012;-55
2021/10/03 02:31:43;;;;;;;2.57;2.20;;;19.20;99.90;;;;;;5054159;28;20501;-54
2021/10/03 02:34:10;;;;;;;2.60;2.23;;;19.30;99.90;;;;;;5053692;28;20482;-54
2021/10/03 02:36:38;;;;;;;3.03;2.63;;;19.40;99.90;;;;;;5054262;28;20474;-54
2021/10/03 02:39:05;;;;;;;3.43;2.60;;;19.40;99.90;;;;;;5054433;28;21149;-53
2021/10/03 02:41:32;;;;;;;3.13;2.60;;;19.40;99.90;;;;;;5054528;28;20481;-53
2021/10/03 02:44:01;;;;;;;3.37;2.70;;;19.40;99.90;;;;;;5053854;28;20568;-55
2021/10/03 02:46:29;;;;;;;3.00;2.60;;;19.40;99.90;;;;;;5053949;28;20491;-54
2021/10/03 02:48:58;;;;;;;2.83;2.63;;;19.20;99.90;;;;;;5053686;28;20556;-54
2021/10/03 02:51:28;;;;;;;3.07;2.43;;;19.40;99.90;;;;;;5052961;28;20443;-53
2021/10/03 02:53:57;;;;;;;3.93;3.00;;;19.40;99.90;;;;;;5039830;28;20452;-54
2021/10/03 02:56:27;;;;;;;3.43;2.50;;;19.40;99.90;;;;;;5034446;28;21011;-54
2021/10/03 02:58:54;;;;;;;3.90;2.40;;;19.30;99.90;;;;;;5034204;28;20468;-54
2021/10/03 03:01:22;;;;;;;3.13;2.83;;;19.30;99.90;;;;;;5039051;28;20443;-55
2021/10/03 03:03:49;;;;;;;3.47;2.53;;;19.40;99.90;;;;;;5040243;28;21017;-53
2021/10/03 03:06:18;;;;;;;4.13;2.70;;;19.30;99.90;;;;;;5034378;28;20448;-54
2021/10/03 03:08:46;;;;;;;3.73;2.73;;;19.30;99.90;;;;;;5041394;28;20483;-53
2021/10/03 03:11:13;;;;;;;4.20;2.60;;;19.30;99.90;;;;;;5053744;28;20464;-53
2021/10/03 03:13:40;;;;;;;2.70;2.50;;;19.20;99.90;;;;;;5053147;28;20506;-54
2021/10/03 03:16:07;;;;;;;2.93;2.40;;;19.30;99.90;;;;;;5053683;28;20451;-54
2021/10/03 03:18:34;;;;;;;5.73;2.50;;;19.30;99.90;;;;;;5053704;28;20873;-54
2021/10/03 03:21:01;;;;;;;2.70;2.50;;;19.30;99.90;;;;;;5053710;28;20451;-54
2021/10/03 03:23:29;;;;;;;2.60;2.40;;;19.30;99.90;;;;;;5045710;28;20950;-54
2021/10/03 03:25:56;;;;;;;2.67;2.47;;;19.40;99.90;;;;;;5050689;28;20448;-53
2021/10/03 03:28:23;;;;;;;4.60;2.53;;;19.40;99.90;;;;;;5053825;28;20520;-54
2021/10/03 03:30:50;;;;;;;6.13;2.30;;;19.50;99.90;;;;;;5053182;28;20477;-54
2021/10/03 03:33:17;;;;;;;2.43;2.10;;;19.40;99.90;;;;;;5051142;28;20452;-53
2021/10/03 03:35:44;;;;;;;4.33;2.30;;;19.50;99.90;;;;;;5053067;28;20505;-54
2021/10/03 03:38:12;;;;;;;6.37;2.40;;;19.40;99.90;;;;;;5053144;28;20452;-53
2021/10/03 03:40:41;;;;;;;2.63;2.20;;;19.40;99.90;;;;;;5053328;28;20502;-54
2021/10/03 03:43:08;;;;;;;2.33;2.13;;;19.50;99.90;;;;;;5047943;28;20448;-54
2021/10/03 03:45:35;;;;;;;4.17;1.93;;;19.60;99.90;;;;;;5033402;28;20456;-53
2021/10/03 03:48:02;;;;;;;2.63;1.93;;;19.60;99.90;;;;;;5039687;28;20627;-53
2021/10/03 03:50:30;;;;;;;7.03;1.80;;;19.60;99.90;;;;;;5052124;28;20993;-54
2021/10/03 03:52:57;;;;;;;2.50;1.70;;;19.60;99.90;;;;;;5049338;28;20545;-54
2021/10/03 03:55:24;;;;;;;2.17;1.80;;;19.60;99.90;;;;;;5044286;28;20556;-53
2021/10/03 03:57:53;;;;;;;2.90;1.90;;;19.60;99.90;;;;;;5053490;28;21008;-54
2021/10/03 04:00:21;;;;;;;2.40;1.70;;;19.50;99.90;;;;;;5053199;28;20452;-52
2021/10/03 04:02:48;;;;;;;2.23;1.77;;;19.60;99.90;;;;;;5052764;28;20460;-53
2021/10/03 04:05:15;;;;;;;2.20;1.97;;;19.60;99.90;;;;;;5052632;28;20497;-53
2021/10/03 04:07:42;;;;;;;2.97;1.73;;;19.60;99.90;;;;;;5052810;28;20498;-53
2021/10/03 04:10:10;;;;;;;2.30;2.00;;;19.60;99.90;;;;;;5052325;28;20992;-52
2021/10/03 04:12:37;;;;;;;2.10;1.90;;;19.60;99.90;;;;;;5051970;28;20530;-53
2021/10/03 04:15:07;;;;;;;2.10;1.90;;;19.50;99.90;;;;;;5032927;28;20452;-53
2021/10/03 04:17:34;;;;;;;1.60;1.50;;;19.60;99.90;;;;;;5032809;28;20455;-53
2021/10/03 04:20:01;;;;;;;2.10;1.87;;;19.80;99.90;;;;;;5047844;28;20463;-52
2021/10/03 04:22:29;;;;;;;1.67;1.57;;;19.80;99.90;;;;;;5052463;28;20450;-52
2021/10/03 04:24:56;;;;;;;3.10;1.70;;;19.80;99.90;;;;;;5039469;28;20521;-52
2021/10/03 04:27:23;;;;;;;1.93;1.83;;;19.90;99.90;;;;;;5052456;28;20506;-52
2021/10/03 04:29:50;;;;;;;2.00;1.80;;;19.80;99.90;;;;;;5051930;28;20537;-52
2021/10/03 04:32:18;;;;;;;2.30;2.10;;;19.70;99.90;;;;;;5048252;28;20507;-51
2021/10/03 04:34:45;;;;;;;3.57;2.03;;;19.60;99.90;;;;;;5032466;28;20842;-52
2021/10/03 04:37:12;;;;;;;2.40;2.20;;;19.60;99.90;;;;;;5032654;28;20448;-52
2021/10/03 04:39:39;;;;;;;4.77;2.30;;;19.70;99.90;;;;;;5042886;28;20541;-52
2021/10/03 04:42:06;;;;;;;4.90;2.10;;;19.70;99.90;;;;;;5051445;28;20455;-52
2021/10/03 04:44:33;;;;;;;3.47;2.03;;;19.60;99.90;;;;;;5051359;28;20451;-51
2021/10/03 04:47:00;;;;;;;2.43;2.10;;;19.70;99.90;;;;;;5063473;22;21001;-57
2021/10/03 04:49:29;;;;;;;3.00;1.97;;;19.80;99.90;;;;;;5032093;28;20536;-57
2021/10/03 04:51:56;;;;;;;3.50;2.40;;;19.70;99.90;;;;;;5038521;28;21018;-57
2021/10/03 04:54:23;;;;;;;2.30;2.00;;;19.60;99.90;;;;;;5032160;28;20506;-57
2021/10/03 04:56:50;;;;;;;2.30;2.10;;;19.70;99.90;;;;;;5031942;28;20472;-57
2021/10/03 04:59:17;;;;;;;2.33;2.13;;;19.60;99.90;;;;;;5032234;28;20868;-57
2021/10/03 05:01:44;;;;;;;4.60;2.23;;;19.70;99.90;;;;;;5031543;28;20498;-57
2021/10/03 05:04:12;;;;;;;2.30;2.10;;;19.60;99.90;;;;;;5031083;28;20838;-57
2021/10/03 05:06:40;;;;;;;5.20;2.30;;;19.80;99.90;;;;;;5030695;28;20464;-57
2021/10/03 05:09:07;;;;;;;2.70;2.33;;;19.60;99.90;;;;;;5031812;28;20563;-56
2021/10/03 05:11:34;;;;;;;3.27;2.30;;;19.60;99.90;;;;;;5030071;28;20989;-57
2021/10/03 05:14:06;;;;;;;4.80;2.60;;;19.60;99.90;;;;;;5025475;28;20464;-57
2021/10/03 05:16:34;;;;;;;1.83;1.70;;;19.60;99.90;;;;;;5024824;28;20472;-57
2021/10/03 05:19:01;;;;;;;3.10;2.50;;;19.80;99.90;;;;;;5031516;28;20536;-57
2021/10/03 05:21:29;;;;;;;3.07;2.30;;;19.80;99.90;;;;;;5031888;28;20457;-57
2021/10/03 05:23:57;;;;;;;2.80;2.40;;;19.80;99.90;;;;;;5032172;28;20471;-57
2021/10/03 05:26:24;;;;;;;3.30;2.63;;;19.80;99.90;;;;;;5017053;28;20520;-57
2021/10/03 05:28:51;;;;;;;2.60;2.20;;;19.70;99.90;;;;;;5011900;28;21006;-57
2021/10/03 05:31:19;;;;;;;2.50;2.20;;;19.70;99.90;;;;;;5028472;28;20532;-57
2021/10/03 05:33:46;;;;;;;2.37;2.17;;;19.80;99.90;;;;;;5031313;28;20460;-57
2021/10/03 05:36:13;;;;;;;2.10;1.93;;;19.90;99.90;;;;;;5031396;28;20473;-58
2021/10/03 05:38:40;;;;;;;2.63;2.43;;;19.90;99.90;;;;;;5031636;28;20445;-57
2021/10/03 05:41:09;;;;;;;9.33;2.63;;;19.90;99.90;;;;;;5031008;28;20457;-57
2021/10/03 05:43:38;;;;;;;2.60;2.40;;;19.90;99.90;;;;;;5014820;28;20452;-56
2021/10/03 05:46:05;;;;;;;5.43;2.53;;;19.90;99.90;;;;;;5028024;28;20542;-57
2021/10/03 05:48:33;;;;;;;4.20;2.60;;;20.10;99.90;;;;;;5027104;28;20528;-57
2021/10/03 05:51:00;;;;;;;3.57;2.73;;;20.10;99.90;;;;;;5028514;28;20464;-57
2021/10/03 05:53:27;;;;;;;3.67;2.30;;;20.10;99.90;;;;;;5030414;28;20515;-58
2021/10/03 05:55:54;;;;;;;4.53;2.43;;;20.10;99.90;;;;;;5023370;28;20487;-58
2021/10/03 05:58:23;;;;;;;3.57;2.50;;;20.10;99.90;;;;;;5034070;28;20464;-57
2021/10/03 06:00:50;;;;;;;3.03;2.33;;;20.20;99.90;;;;;;5029185;28;20460;-57
2021/10/03 06:03:17;;;;;;;6.60;2.70;;;20.40;99.90;;;;;;5030268;28;20504;-57
2021/10/03 06:05:44;;;;;;;2.70;2.50;;;20.30;99.90;;;;;;5022870;28;20452;-57
2021/10/03 06:08:11;;;;;;;2.90;2.70;;;20.30;99.90;;;;;;5032562;28;20465;-57
2021/10/03 06:10:38;;;;;;;4.10;2.17;;;20.40;99.90;;;;;;5034110;28;20484;-57
2021/10/03 06:13:06;;;;;;;2.90;2.57;;;20.50;99.90;;;;;;5034822;28;20453;-58
2021/10/03 06:15:37;;;;;;;4.40;2.50;;;20.60;99.90;;;;;;5027840;28;20453;-58
2021/10/03 06:18:04;;;;;;;10.10;2.63;;;20.60;99.90;;;;;;5015362;28;21013;-58
2021/10/03 06:20:31;;;;;;;4.33;2.20;;;20.70;99.90;;;;;;5030527;28;20452;-58
2021/10/03 06:22:58;;;;;;;3.60;2.07;;;20.70;99.90;;;;;;5033444;28;20448;-58
2021/10/03 06:25:25;;;;;;;3.10;2.47;;;20.70;99.90;;;;;;5034574;28;20510;-58
2021/10/03 06:27:52;;;;;;;3.10;2.80;;;20.60;99.90;;;;;;5034108;28;21059;-58
2021/10/03 06:30:20;;;;;;;5.90;2.33;;;20.70;99.90;;;;;;5034011;28;20530;-58
2021/10/03 06:32:50;;;;;;;2.93;2.20;;;20.80;99.90;;;;;;5019363;28;20481;-58
2021/10/03 06:35:18;;;;;;;2.87;2.60;;;20.80;99.90;;;;;;5015862;28;20872;-58
2021/10/03 06:37:45;;;;;;;4.80;2.67;;;20.70;99.90;;;;;;5032497;28;20924;-58
2021/10/03 06:40:12;;;;;;;3.70;2.73;;;20.70;99.90;;;;;;5031958;28;20491;-58
2021/10/03 06:42:39;;;;;;;2.60;2.33;;;20.60;99.90;;;;;;5031033;28;20508;-58
2021/10/03 06:45:07;;;;;;;2.53;2.33;;;20.70;99.90;;;;;;5035912;28;20446;-59
2021/10/03 06:47:35;;;;;;;5.60;2.50;;;20.70;99.90;;;;;;5022318;28;20473;-58
2021/10/03 06:50:03;;;;;;;2.43;2.17;;;20.90;99.90;;;;;;5033864;28;20480;-58
2021/10/03 06:52:30;;;;;;;3.20;2.70;;;20.90;99.90;;;;;;5032022;28;20507;-58
2021/10/03 06:54:58;;;;;;;3.80;2.77;;;20.90;99.90;;;;;;5033747;28;20456;-58
2021/10/03 06:57:25;;;;;;;3.00;2.53;;;20.90;99.90;;;;;;5027071;28;20532;-58
2021/10/03 06:59:51;;;;;;;3.53;2.90;;;21.00;99.90;;;;;;5033133;28;20449;-59
2021/10/03 07:02:22;;;;;;;4.20;2.67;;;21.00;99.90;;;;;;5037592;28;20506;-58
2021/10/03 07:04:49;;;;;;;3.40;2.37;;;21.00;99.90;;;;;;5030489;28;20539;-58
2021/10/03 07:07:18;;;;;;;4.67;2.57;;;21.10;99.90;;;;;;5031025;28;20492;-58
2021/10/03 07:09:45;;;;;;;2.50;2.20;;;21.20;99.90;;;;;;5027010;28;20488;-58
2021/10/03 07:12:12;;;;;;;4.33;2.87;;;21.30;99.90;;;;;;5032286;28;20515;-58
2021/10/03 07:14:42;;;;;;;6.37;2.63;;;21.50;99.90;;;;;;5033336;28;20460;-59
2021/10/03 07:17:09;;;;;;;5.32;2.80;;;21.40;99.90;;;;;;5022448;28;20461;-58
2021/10/03 07:19:36;;;;;;;2.83;2.53;;;21.30;99.90;;;;;;5031757;28;20260;-59
2021/10/03 07:22:04;;;;;;;6.17;3.03;;;21.30;99.90;;;;;;5026215;28;20486;-59
2021/10/03 07:24:32;;;;;;;4.97;2.60;;;21.30;99.90;;;;;;5025325;28;20456;-58
2021/10/03 07:26:59;;;;;;;7.10;2.33;;;21.50;99.90;;;;;;5025634;28;20538;-58
2021/10/03 07:29:26;;;;;;;11.13;2.00;;;21.40;99.90;;;;;;5025816;28;20484;-59
2021/10/03 07:31:53;;;;;;;1.90;1.80;;;21.50;99.90;;;;;;5024311;28;21227;-59
2021/10/03 07:34:20;;;;;;;5.13;2.37;;;21.50;99.90;;;;;;5025803;28;21002;-58
2021/10/03 07:36:47;;;;;;;3.40;2.13;;;21.50;99.90;;;;;;5031514;28;20496;-59
2021/10/03 07:39:14;;;;;;;2.47;1.93;;;21.50;99.90;;;;;;5025740;28;20464;-59
2021/10/03 07:41:43;;;;;;;2.30;1.70;;;21.40;99.90;;;;;;5024276;28;20460;-58
2021/10/03 07:44:10;;;;;;;2.30;2.10;;;21.60;99.90;;;;;;5023004;28;20457;-58
2021/10/03 07:46:37;;;;;;;5.00;1.87;;;21.70;99.90;;;;;;5024097;28;20848;-58
2021/10/03 07:49:04;;;;;;;2.07;1.77;;;21.90;99.90;;;;;;5024928;28;20618;-58
2021/10/03 07:51:31;;;;;;;3.30;2.13;;;22.00;99.90;;;;;;5025327;28;20542;-58
2021/10/03 07:53:58;;;;;;;5.17;2.00;;;22.20;99.90;;;;;;5024701;28;20472;-58
2021/10/03 07:56:25;;;;;;;2.90;2.03;;;22.40;99.90;;;;;;5025474;28;20492;-57
2021/10/03 07:58:54;;;;;;;1.93;1.80;;;22.60;99.90;;;;;;5031290;28;20460;-58
2021/10/03 08:01:21;;;;;;;3.00;1.60;;;22.60;99.90;;;;;;5029615;28;20475;-58
2021/10/03 08:03:49;;;;;;;6.13;1.67;;;22.60;99.90;;;;;;5022207;28;20962;-58
2021/10/03 08:06:17;;;;;;;3.23;1.30;;;22.60;99.90;;;;;;5025617;28;20484;-58
2021/10/03 08:08:45;;;;;;;5.53;1.50;;;22.60;99.90;;;;;;5027547;28;20467;-58
2021/10/03 08:11:12;;;;;;;1.50;1.40;;;22.70;99.90;;;;;;5022204;28;20491;-58
2021/10/03 08:13:39;;;;;;;1.53;1.43;;;22.80;99.90;;;;;;5028004;28;20522;-58
2021/10/03 08:16:08;;;;;;;1.10;0.90;;;22.80;99.90;;;;;;5023688;28;20539;-58
2021/10/03 08:18:36;;;;;;;1.07;0.97;;;22.90;99.90;;;;;;5022940;28;20919;-58
2021/10/03 08:21:03;;;;;;;5.73;1.13;;;23.00;99.90;;;;;;5023967;28;20459;-58
2021/10/03 08:23:30;;;;;;;2.53;1.27;;;23.10;99.90;;;;;;5024084;28;20473;-58
2021/10/03 08:25:57;;;;;;;2.70;1.27;;;23.20;99.90;;;;;;5021934;28;20500;-58
2021/10/03 08:28:25;;;;;;;2.13;1.10;;;23.10;99.90;;;;;;5024290;28;20547;-59
2021/10/03 08:30:52;;;;;;;4.40;1.33;;;23.10;99.90;;;;;;5024290;28;20491;-58
2021/10/03 08:33:21;;;;;;;4.30;1.00;;;23.10;99.90;;;;;;5026614;28;20518;-58
2021/10/03 08:35:48;;;;;;;4.30;1.10;;;23.30;99.90;;;;;;5024007;28;20534;-57
2021/10/03 08:38:15;;;;;;;1.73;0.90;;;23.40;99.90;;;;;;5024129;28;20476;-58
2021/10/03 08:40:42;;;;;;;3.33;1.20;;;23.50;99.90;;;;;;5022922;28;20464;-58
2021/10/03 08:43:10;;;;;;;2.50;0.90;;;23.90;99.90;;;;;;5023795;28;20465;-58
2021/10/03 08:45:42;;;;;;;3.00;1.00;;;24.00;99.90;;;;;;5023396;28;20488;-60
2021/10/03 08:48:09;;;;;;;5.13;1.10;;;23.90;99.90;;;;;;5024310;28;20466;-61
2021/10/03 08:50:38;;;;;;;4.83;1.30;;;23.60;99.90;;;;;;5021823;28;20567;-60
2021/10/03 08:53:05;;;;;;;1.40;0.80;;;23.60;99.90;;;;;;5023455;28;20460;-60
2021/10/03 08:55:33;;;;;;;4.10;1.17;;;23.50;99.90;;;;;;5026595;28;20966;-60
2021/10/03 08:58:02;;;;;;;7.50;0.90;;;23.30;99.90;;;;;;5030731;28;20863;-60
2021/10/03 09:00:29;;;;;;;2.73;0.80;;;23.40;99.90;;;;;;5032367;28;20452;-60
2021/10/03 09:03:02;;;;;;;3.30;1.10;;;23.50;99.90;;;;;;5051965;28;20953;-60
2021/10/03 09:05:35;;;;;;;2.77;0.70;;;23.60;99.90;;;;;;5052437;28;20476;-60
2021/10/03 09:08:07;;;;;;;1.53;0.70;;;23.70;99.90;;;;;;5051912;28;20444;-60
2021/10/03 09:10:57;;;;;;;2.27;0.90;;;23.80;99.90;;;;;;5032915;28;20562;-60
2021/10/03 09:13:40;;;;;;;0.80;0.70;;;23.90;99.90;;;;;;5037265;28;20458;-60
2021/10/03 09:16:10;;;;;;;1.13;0.80;;;23.90;99.90;;;;;;5026842;28;20468;-60
2021/10/03 09:18:48;;;;;;;5.43;0.83;;;24.00;99.90;;;;;;5031778;28;20448;-61
2021/10/03 09:21:34;;;;;;;1.97;0.90;;;24.10;99.90;;;;;;5027700;28;20464;-61
2021/10/03 09:24:04;;;;;;;5.23;0.73;;;24.20;99.90;;;;;;5027252;28;20483;-60
2021/10/03 09:26:32;;;;;;;4.37;0.90;;;24.10;99.90;;;;;;5026390;28;20485;-61
2021/10/03 09:28:59;;;;;;;2.90;0.60;;;24.00;99.90;;;;;;5028838;28;20554;-61
2021/10/03 09:31:27;;;;;;;4.33;0.90;;;24.20;99.90;;;;;;5027428;28;20485;-60
2021/10/03 09:33:55;;;;;;;1.10;0.90;;;24.70;99.90;;;;;;5031044;28;20452;-60
2021/10/03 09:36:25;;;;;;;1.83;0.70;;;25.20;99.90;;;;;;5030858;28;20473;-61
2021/10/03 09:38:56;;;;;;;1.00;0.50;;;25.30;99.90;;;;;;5031095;28;20461;-59
2021/10/03 09:41:26;;;;;;;0.80;0.73;;;25.50;99.90;;;;;;5030226;28;20463;-61
2021/10/03 09:43:56;;;;;;;3.67;0.70;;;25.50;99.90;;;;;;5029953;28;20479;-61
2021/10/03 09:46:32;;;;;;;6.47;0.53;;;25.10;99.60;;;;;;5029177;28;20481;-60
2021/10/03 09:49:00;;;;;;;1.33;0.60;;;24.70;99.90;;;;;;5030313;28;21008;-60
2021/10/03 09:51:27;;;;;;;3.50;1.90;;;24.60;99.90;;;;;;5029851;28;20484;-61
2021/10/03 09:53:55;;;;;;;2.23;0.77;;;24.40;99.90;;;;;;5030190;28;20890;-61
2021/10/03 09:56:22;;;;;;;2.20;0.50;;;24.30;99.90;;;;;;5028479;28;20546;-60
2021/10/03 09:58:53;;;;;;;2.20;0.80;;;24.20;99.90;;;;;;5028419;28;20536;-60
2021/10/03 10:01:22;;;;;;;1.83;0.60;;;24.20;99.90;;;;;;5030652;28;20480;-61
2021/10/03 10:03:49;;;;;;;0.70;0.60;;;24.20;99.90;;;;;;5030819;28;20465;-61
2021/10/03 10:06:17;;;;;;;2.43;0.73;;;24.20;99.90;;;;;;5030576;28;20522;-60
2021/10/03 10:08:45;;;;;;;2.73;0.63;;;24.30;99.90;;;;;;5031268;28;20527;-61
2021/10/03 10:11:16;;;;;;;2.50;0.60;;;24.40;99.90;;;;;;5030063;28;20863;-61
2021/10/03 10:13:54;;;;;;;2.17;0.80;;;24.50;99.90;;;;;;5030831;28;20452;-60
2021/10/03 10:16:29;;;;;;;2.23;0.70;;;24.50;99.90;;;;;;5030625;28;20939;-60
2021/10/03 10:19:28;;;;;;;3.03;0.60;;;24.60;99.90;;;;;;5030016;28;20605;-61
2021/10/03 10:22:36;;;;;;;0.70;0.50;;;24.60;99.90;;;;;;5028287;28;20535;-60
2021/10/03 10:25:06;;;;;;;0.57;0.50;;;24.50;99.90;;;;;;5026154;28;20464;-60
2021/10/03 10:28:10;;;;;;;1.60;0.63;;;24.40;99.90;;;;;;5026509;28;21246;-60
2021/10/03 10:31:04;;;;;;;2.40;0.50;;;24.30;99.90;;;;;;5027637;28;20567;-60
2021/10/03 10:34:08;;;;;;;0.70;0.60;;;24.20;99.90;;;;;;5027822;28;21000;-60
2021/10/03 10:36:49;;;;;;;0.70;0.47;;;24.10;99.90;;;;;;5008389;28;20488;-60
2021/10/03 10:39:25;;;;;;;0.67;0.60;;;24.30;99.90;;;;;;5018935;28;20444;-60
2021/10/03 10:41:54;;;;;;;0.67;0.50;;;24.20;99.90;;;;;;5023888;28;20448;-60
2021/10/03 10:44:35;;;;;;;1.27;0.50;;;24.40;99.90;;;;;;5033153;28;20479;-60
2021/10/03 10:47:14;;;;;;;1.37;0.60;;;24.60;99.90;;;;;;5028334;28;20496;-60
2021/10/03 10:49:50;;;;;;;1.20;0.50;;;24.70;99.90;;;;;;5026900;28;20464;-60
2021/10/03 10:52:41;;;;;;;2.00;0.60;;;24.80;99.90;;;;;;5035737;28;20483;-60
2021/10/03 10:55:30;;;;;;;0.80;0.50;;;24.80;99.90;;;;;;5030456;28;20468;-60
2021/10/03 10:58:22;;;;;;;2.10;0.60;;;24.80;99.90;;;;;;5032007;28;20456;-60
2021/10/03 11:00:59;;;;;;;2.50;0.60;;;25.10;99.90;;;;;;5032631;28;20448;-60
2021/10/03 11:03:59;;;;;;;0.70;0.50;;;25.30;99.90;;;;;;5033658;28;20527;-61
2021/10/03 11:06:54;;;;;;;1.67;0.67;;;25.30;99.90;;;;;;4955653;28;20484;-60
2021/10/03 11:09:21;;;;;;;3.70;0.60;;;25.30;99.90;;;;;;5030327;28;20448;-60
2021/10/03 11:12:07;;;;;;;2.70;0.67;;;25.40;99.90;;;;;;5032886;28;20480;-60
2021/10/03 11:14:35;;;;;;;1.13;0.60;;;25.40;99.90;;;;;;5020162;28;20449;-60
2021/10/03 11:17:05;;;;;;;5.40;0.70;;;25.20;99.90;;;;;;5046548;28;20467;-60
2021/10/03 11:19:37;;;;;;;1.07;0.50;;;25.00;99.90;;;;;;5038515;28;20447;-60
2021/10/03 11:22:07;;;;;;;1.07;0.50;;;25.00;99.90;;;;;;5044838;28;20449;-60
2021/10/03 11:24:35;;;;;;;4.17;1.00;;;25.10;99.90;;;;;;5033350;28;20502;-60
2021/10/03 11:27:05;;;;;;;2.83;0.60;;;25.30;99.90;;;;;;5029529;28;20476;-59
2021/10/03 11:29:34;;;;;;;0.70;0.60;;;25.50;99.90;;;;;;5020266;28;20536;-60
2021/10/03 11:32:03;;;;;;;1.37;0.70;;;25.80;99.90;;;;;;5032637;28;21075;-60
2021/10/03 11:34:33;;;;;;;3.80;0.80;;;25.70;99.30;;;;;;5033579;28;20507;-60
2021/10/03 11:37:03;;;;;;;1.70;0.60;;;25.50;99.90;;;;;;5031802;28;20480;-60
2021/10/03 11:39:40;;;;;;;2.30;0.60;;;25.50;99.10;;;;;;5032064;28;20468;-60
2021/10/03 11:42:08;;;;;;;4.60;0.87;;;25.40;98.80;;;;;;5027717;28;20460;-60
2021/10/03 11:44:41;;;;;;;2.40;0.87;;;25.10;99.20;;;;;;5031440;28;20456;-60
2021/10/03 11:47:13;;;;;;;1.90;0.70;;;24.90;98.80;;;;;;5027622;28;21073;-61
2021/10/03 11:49:44;;;;;;;3.47;0.70;;;24.90;99.50;;;;;;5032575;28;20453;-60
2021/10/03 11:52:27;;;;;;;3.67;0.87;;;24.80;98.70;;;;;;5032883;28;20485;-60
2021/10/03 11:55:02;;;;;;;2.93;0.70;;;25.00;99.80;;;;;;5032375;28;20476;-60
2021/10/03 11:57:29;;;;;;;3.80;1.10;;;25.00;99.20;;;;;;5030999;28;21047;-60
2021/10/03 12:00:06;;;;;;;2.47;0.83;;;24.90;98.80;;;;;;5027051;28;20449;-60
2021/10/03 12:02:37;;;;;;;2.60;0.90;;;25.00;98.40;;;;;;5026515;28;20502;-61
2021/10/03 12:05:06;;;;;;;2.53;0.73;;;25.30;99.70;;;;;;5032521;28;20879;-61
2021/10/03 12:07:36;;;;;;;3.93;1.93;;;25.50;99.00;;;;;;5031244;28;20483;-60
2021/10/03 12:10:07;;;;;;;1.47;0.90;;;25.50;97.20;;;;;;5030616;28;20491;-60
2021/10/03 12:12:48;;;;;;;3.70;0.80;;;25.40;97.70;;;;;;5031317;28;20567;-61
2021/10/03 12:15:50;;;;;;;1.83;0.80;;;25.30;97.50;;;;;;5031011;28;20453;-61
2021/10/03 12:18:36;;;;;;;2.70;0.87;;;25.40;98.10;;;;;;5030266;28;20458;-61
2021/10/03 12:21:04;;;;;;;3.20;1.30;;;25.70;97.10;;;;;;5031949;28;20809;-61
2021/10/03 12:23:53;;;;;;;2.13;1.13;;;25.80;96.70;;;;;;5032273;28;20448;-60
2021/10/03 12:26:27;;;;;;;5.07;1.10;;;25.80;96.00;;;;;;5031150;28;20473;-61
2021/10/03 12:29:00;;;;;;;4.97;1.00;;;25.80;96.00;;;;;;5030674;28;20870;-61
2021/10/03 12:31:38;;;;;;;2.90;1.00;;;25.80;94.30;;;;;;5032106;28;20546;-61
2021/10/03 12:34:07;;;;;;;2.07;1.23;;;26.00;94.30;;;;;;5032122;28;20467;-61
2021/10/03 12:36:34;;;;;;;4.43;1.10;;;25.90;94.30;;;;;;5031815;28;21032;-61
2021/10/03 12:39:03;;;;;;;1.50;1.10;;;25.80;94.00;;;;;;5031861;28;20950;-61
2021/10/03 12:41:30;;;;;;;3.97;1.00;;;25.80;94.40;;;;;;5031894;28;20449;-61
2021/10/03 12:43:57;;;;;;;1.53;1.00;;;25.50;93.90;;;;;;5029500;28;20503;-61
2021/10/03 12:46:24;;;;;;;1.00;0.80;;;25.30;94.80;;;;;;5029046;28;20476;-61
2021/10/03 12:48:52;;;;;;;1.30;0.90;;;25.50;94.80;;;;;;5018873;28;20946;-61
2021/10/03 12:51:19;;;;;;;2.27;1.10;;;25.70;95.10;;;;;;5031171;28;20585;-62
2021/10/03 12:53:46;;;;;;;2.00;1.00;;;25.90;95.70;;;;;;5032225;28;20453;-61
2021/10/03 12:56:15;;;;;;;1.93;1.00;;;26.00;94.20;;;;;;5028807;28;20468;-61
2021/10/03 12:58:42;;;;;;;1.40;1.07;;;25.90;94.60;;;;;;5031327;28;20449;-61
2021/10/03 13:01:10;;;;;;;1.17;0.80;;;25.70;95.70;;;;;;5031960;28;20444;-61